sensor_id;sensor_type;location;lat;lon;timestamp;temperature;humidity
5334;DHT22;2689;50.954;7.116;2022-08-30T00:01:06;19.50;71.80
5334;DHT22;2689;50.954;7.116;2022-08-30T00:03:36;19.40;72.60
5334;DHT22;2689;50.954;7.116;2022-08-30T00:06:05;19.30;73.50
5334;DHT22;2689;50.954;7.116;2022-08-30T00:08:33;19.20;74.10
5334;DHT22;2689;50.954;7.116;2022-08-30T00:11:00;19.20;75.10
5334;DHT22;2689;50.954;7.116;2022-08-30T00:13:27;19.10;76.20
5334;DHT22;2689;50.954;7.116;2022-08-30T00:15:54;19.00;75.50
5334;DHT22;2689;50.954;7.116;2022-08-30T00:18:22;19.10;75.20
5334;DHT22;2689;50.954;7.116;2022-08-30T00:20:50;19.10;75.10
5334;DHT22;2689;50.954;7.116;2022-08-30T00:23:17;19.00;75.60
5334;DHT22;2689;50.954;7.116;2022-08-30T00:25:44;18.90;76.30
5334;DHT22;2689;50.954;7.116;2022-08-30T00:28:11;18.90;77.20
5334;DHT22;2689;50.954;7.116;2022-08-30T00:30:39;18.70;78.10
5334;DHT22;2689;50.954;7.116;2022-08-30T00:33:06;18.70;79.00
5334;DHT22;2689;50.954;7.116;2022-08-30T00:35:34;18.60;80.00
5334;DHT22;2689;50.954;7.116;2022-08-30T00:38:03;18.60;80.50
5334;DHT22;2689;50.954;7.116;2022-08-30T00:40:29;18.50;81.00
5334;DHT22;2689;50.954;7.116;2022-08-30T00:42:58;18.50;82.10
5334;DHT22;2689;50.954;7.116;2022-08-30T00:45:26;18.50;82.40
5334;DHT22;2689;50.954;7.116;2022-08-30T00:47:54;18.40;82.50
5334;DHT22;2689;50.954;7.116;2022-08-30T00:50:24;18.40;83.20
5334;DHT22;2689;50.954;7.116;2022-08-30T00:52:56;18.30;83.90
5334;DHT22;2689;50.954;7.116;2022-08-30T00:55:24;18.30;84.40
5334;DHT22;2689;50.954;7.116;2022-08-30T00:57:55;18.30;85.20
5334;DHT22;2689;50.954;7.116;2022-08-30T01:00:24;18.30;85.50
5334;DHT22;2689;50.954;7.116;2022-08-30T01:02:51;18.40;85.10
5334;DHT22;2689;50.954;7.116;2022-08-30T01:05:18;18.40;85.40
5334;DHT22;2689;50.954;7.116;2022-08-30T01:07:45;18.40;85.70
5334;DHT22;2689;50.954;7.116;2022-08-30T01:10:14;18.50;85.70
5334;DHT22;2689;50.954;7.116;2022-08-30T01:12:42;18.60;84.90
5334;DHT22;2689;50.954;7.116;2022-08-30T01:15:11;18.60;85.20
5334;DHT22;2689;50.954;7.116;2022-08-30T01:17:40;18.60;85.80
5334;DHT22;2689;50.954;7.116;2022-08-30T01:20:09;18.50;85.90
5334;DHT22;2689;50.954;7.116;2022-08-30T01:22:42;18.50;85.70
5334;DHT22;2689;50.954;7.116;2022-08-30T01:25:13;18.50;84.50
5334;DHT22;2689;50.954;7.116;2022-08-30T01:27:43;18.50;84.70
5334;DHT22;2689;50.954;7.116;2022-08-30T01:30:12;18.50;86.30
5334;DHT22;2689;50.954;7.116;2022-08-30T01:32:40;18.50;85.90
5334;DHT22;2689;50.954;7.116;2022-08-30T01:35:09;18.40;85.80
5334;DHT22;2689;50.954;7.116;2022-08-30T01:37:37;18.50;86.30
5334;DHT22;2689;50.954;7.116;2022-08-30T01:40:05;18.50;86.10
5334;DHT22;2689;50.954;7.116;2022-08-30T01:42:33;18.50;86.30
5334;DHT22;2689;50.954;7.116;2022-08-30T01:45:00;18.50;86.40
5334;DHT22;2689;50.954;7.116;2022-08-30T01:47:27;18.40;87.70
5334;DHT22;2689;50.954;7.116;2022-08-30T01:49:53;18.40;88.20
5334;DHT22;2689;50.954;7.116;2022-08-30T01:52:20;18.40;88.80
5334;DHT22;2689;50.954;7.116;2022-08-30T01:54:47;18.40;88.30
5334;DHT22;2689;50.954;7.116;2022-08-30T01:57:17;18.40;89.10
5334;DHT22;2689;50.954;7.116;2022-08-30T01:59:47;18.30;89.70
5334;DHT22;2689;50.954;7.116;2022-08-30T02:02:15;18.30;89.60
5334;DHT22;2689;50.954;7.116;2022-08-30T02:04:43;18.30;89.80
5334;DHT22;2689;50.954;7.116;2022-08-30T02:07:10;18.30;89.90
5334;DHT22;2689;50.954;7.116;2022-08-30T02:09:37;18.30;89.70
5334;DHT22;2689;50.954;7.116;2022-08-30T02:12:04;18.30;89.80
5334;DHT22;2689;50.954;7.116;2022-08-30T02:14:32;18.30;90.00
5334;DHT22;2689;50.954;7.116;2022-08-30T02:17:00;18.20;89.90
5334;DHT22;2689;50.954;7.116;2022-08-30T02:19:27;18.20;90.10
5334;DHT22;2689;50.954;7.116;2022-08-30T02:21:54;18.30;90.30
5334;DHT22;2689;50.954;7.116;2022-08-30T02:24:21;18.30;90.30
5334;DHT22;2689;50.954;7.116;2022-08-30T02:26:47;18.30;90.10
5334;DHT22;2689;50.954;7.116;2022-08-30T02:29:14;18.30;90.10
5334;DHT22;2689;50.954;7.116;2022-08-30T02:31:41;18.30;90.10
5334;DHT22;2689;50.954;7.116;2022-08-30T02:34:09;18.40;90.00
5334;DHT22;2689;50.954;7.116;2022-08-30T02:36:36;18.40;90.00
5334;DHT22;2689;50.954;7.116;2022-08-30T02:39:05;18.40;90.00
5334;DHT22;2689;50.954;7.116;2022-08-30T02:41:32;18.40;90.20
5334;DHT22;2689;50.954;7.116;2022-08-30T02:43:58;18.40;90.40
5334;DHT22;2689;50.954;7.116;2022-08-30T02:46:25;18.40;90.10
5334;DHT22;2689;50.954;7.116;2022-08-30T02:48:52;18.40;90.10
5334;DHT22;2689;50.954;7.116;2022-08-30T02:51:20;18.40;90.40
5334;DHT22;2689;50.954;7.116;2022-08-30T02:53:47;18.40;90.40
5334;DHT22;2689;50.954;7.116;2022-08-30T02:56:14;18.40;90.60
5334;DHT22;2689;50.954;7.116;2022-08-30T02:58:41;18.40;90.70
5334;DHT22;2689;50.954;7.116;2022-08-30T03:01:09;18.40;90.80
5334;DHT22;2689;50.954;7.116;2022-08-30T03:03:37;18.40;90.90
5334;DHT22;2689;50.954;7.116;2022-08-30T03:06:04;18.30;91.10
5334;DHT22;2689;50.954;7.116;2022-08-30T03:08:32;18.30;91.50
5334;DHT22;2689;50.954;7.116;2022-08-30T03:10:59;18.20;91.90
5334;DHT22;2689;50.954;7.116;2022-08-30T03:13:27;18.20;92.30
5334;DHT22;2689;50.954;7.116;2022-08-30T03:15:55;18.20;92.40
5334;DHT22;2689;50.954;7.116;2022-08-30T03:18:22;18.20;92.80
5334;DHT22;2689;50.954;7.116;2022-08-30T03:20:49;18.10;92.80
5334;DHT22;2689;50.954;7.116;2022-08-30T03:23:17;18.00;92.90
5334;DHT22;2689;50.954;7.116;2022-08-30T03:25:45;18.00;93.40
5334;DHT22;2689;50.954;7.116;2022-08-30T03:28:11;18.00;93.70
5334;DHT22;2689;50.954;7.116;2022-08-30T03:30:38;17.90;93.90
5334;DHT22;2689;50.954;7.116;2022-08-30T03:33:05;17.90;94.20
5334;DHT22;2689;50.954;7.116;2022-08-30T03:35:32;17.90;94.40
5334;DHT22;2689;50.954;7.116;2022-08-30T03:37:59;17.90;94.60
5334;DHT22;2689;50.954;7.116;2022-08-30T03:40:25;17.80;94.50
5334;DHT22;2689;50.954;7.116;2022-08-30T03:42:53;17.80;94.40
5334;DHT22;2689;50.954;7.116;2022-08-30T03:45:20;17.70;94.40
5334;DHT22;2689;50.954;7.116;2022-08-30T03:47:47;17.70;94.40
5334;DHT22;2689;50.954;7.116;2022-08-30T03:50:14;17.60;94.50
5334;DHT22;2689;50.954;7.116;2022-08-30T03:52:42;17.60;94.60
5334;DHT22;2689;50.954;7.116;2022-08-30T03:55:10;17.50;94.90
5334;DHT22;2689;50.954;7.116;2022-08-30T03:57:36;17.50;95.10
5334;DHT22;2689;50.954;7.116;2022-08-30T04:00:08;17.50;95.40
5334;DHT22;2689;50.954;7.116;2022-08-30T04:02:35;17.50;95.60
5334;DHT22;2689;50.954;7.116;2022-08-30T04:05:03;17.50;95.80
5334;DHT22;2689;50.954;7.116;2022-08-30T04:07:29;17.50;96.00
5334;DHT22;2689;50.954;7.116;2022-08-30T04:09:56;17.40;96.00
5334;DHT22;2689;50.954;7.116;2022-08-30T04:12:23;17.40;96.10
5334;DHT22;2689;50.954;7.116;2022-08-30T04:14:50;17.30;96.60
5334;DHT22;2689;50.954;7.116;2022-08-30T04:17:18;17.30;96.50
5334;DHT22;2689;50.954;7.116;2022-08-30T04:19:45;17.20;96.60
5334;DHT22;2689;50.954;7.116;2022-08-30T04:22:12;17.20;96.90
5334;DHT22;2689;50.954;7.116;2022-08-30T04:24:38;17.10;97.10
5334;DHT22;2689;50.954;7.116;2022-08-30T04:27:06;17.00;97.30
5334;DHT22;2689;50.954;7.116;2022-08-30T04:29:33;17.00;97.60
5334;DHT22;2689;50.954;7.116;2022-08-30T04:32:00;16.90;97.80
5334;DHT22;2689;50.954;7.116;2022-08-30T04:34:28;16.90;98.00
5334;DHT22;2689;50.954;7.116;2022-08-30T04:36:55;16.80;98.10
5334;DHT22;2689;50.954;7.116;2022-08-30T04:39:21;16.80;98.40
5334;DHT22;2689;50.954;7.116;2022-08-30T04:41:48;16.70;98.60
5334;DHT22;2689;50.954;7.116;2022-08-30T04:44:15;16.70;98.70
5334;DHT22;2689;50.954;7.116;2022-08-30T04:46:42;16.70;98.90
5334;DHT22;2689;50.954;7.116;2022-08-30T04:49:09;16.60;99.00
5334;DHT22;2689;50.954;7.116;2022-08-30T04:51:37;16.60;99.20
5334;DHT22;2689;50.954;7.116;2022-08-30T04:54:04;16.50;99.40
5334;DHT22;2689;50.954;7.116;2022-08-30T04:56:31;16.50;99.70
5334;DHT22;2689;50.954;7.116;2022-08-30T04:58:58;16.50;99.90
5334;DHT22;2689;50.954;7.116;2022-08-30T05:01:27;16.50;99.90
5334;DHT22;2689;50.954;7.116;2022-08-30T05:03:55;16.60;99.90
5334;DHT22;2689;50.954;7.116;2022-08-30T05:06:23;16.60;99.90
5334;DHT22;2689;50.954;7.116;2022-08-30T05:08:51;16.60;99.90
5334;DHT22;2689;50.954;7.116;2022-08-30T05:11:19;16.60;99.90
5334;DHT22;2689;50.954;7.116;2022-08-30T05:13:46;16.60;99.90
5334;DHT22;2689;50.954;7.116;2022-08-30T05:16:14;16.70;99.90
5334;DHT22;2689;50.954;7.116;2022-08-30T05:18:43;16.70;99.90
5334;DHT22;2689;50.954;7.116;2022-08-30T05:21:12;16.80;99.90
5334;DHT22;2689;50.954;7.116;2022-08-30T05:23:40;16.80;99.90
5334;DHT22;2689;50.954;7.116;2022-08-30T05:26:12;16.90;99.90
5334;DHT22;2689;50.954;7.116;2022-08-30T05:28:39;17.00;99.90
5334;DHT22;2689;50.954;7.116;2022-08-30T05:31:13;17.10;99.90
5334;DHT22;2689;50.954;7.116;2022-08-30T05:33:40;17.20;99.70
5334;DHT22;2689;50.954;7.116;2022-08-30T05:36:08;17.30;99.30
5334;DHT22;2689;50.954;7.116;2022-08-30T05:38:35;17.40;99.30
5334;DHT22;2689;50.954;7.116;2022-08-30T05:41:02;17.40;99.00
5334;DHT22;2689;50.954;7.116;2022-08-30T05:43:30;17.50;99.10
5334;DHT22;2689;50.954;7.116;2022-08-30T05:45:58;17.50;99.40
5334;DHT22;2689;50.954;7.116;2022-08-30T05:48:25;17.50;98.90
5334;DHT22;2689;50.954;7.116;2022-08-30T05:51:01;17.50;98.90
5334;DHT22;2689;50.954;7.116;2022-08-30T05:53:27;17.50;98.80
5334;DHT22;2689;50.954;7.116;2022-08-30T05:55:54;17.50;98.90
5334;DHT22;2689;50.954;7.116;2022-08-30T05:58:21;17.50;99.30
5334;DHT22;2689;50.954;7.116;2022-08-30T06:00:49;17.60;99.60
5334;DHT22;2689;50.954;7.116;2022-08-30T06:03:16;17.70;99.70
5334;DHT22;2689;50.954;7.116;2022-08-30T06:05:42;17.80;99.60
5334;DHT22;2689;50.954;7.116;2022-08-30T06:08:09;18.00;99.50
5334;DHT22;2689;50.954;7.116;2022-08-30T06:10:36;18.10;99.40
5334;DHT22;2689;50.954;7.116;2022-08-30T06:13:03;18.30;99.40
5334;DHT22;2689;50.954;7.116;2022-08-30T06:15:29;18.40;99.10
5334;DHT22;2689;50.954;7.116;2022-08-30T06:17:57;18.60;98.30
5334;DHT22;2689;50.954;7.116;2022-08-30T06:20:24;18.80;97.90
5334;DHT22;2689;50.954;7.116;2022-08-30T06:22:51;18.90;96.20
5334;DHT22;2689;50.954;7.116;2022-08-30T06:25:18;18.90;95.40
5334;DHT22;2689;50.954;7.116;2022-08-30T06:27:45;19.00;95.10
5334;DHT22;2689;50.954;7.116;2022-08-30T06:30:13;19.10;95.20
5334;DHT22;2689;50.954;7.116;2022-08-30T06:32:39;19.30;95.20
5334;DHT22;2689;50.954;7.116;2022-08-30T06:35:08;19.50;94.90
5334;DHT22;2689;50.954;7.116;2022-08-30T06:37:35;19.60;94.60
5334;DHT22;2689;50.954;7.116;2022-08-30T06:40:03;19.70;94.40
5334;DHT22;2689;50.954;7.116;2022-08-30T06:42:31;19.90;94.80
5334;DHT22;2689;50.954;7.116;2022-08-30T06:44:58;20.00;93.90
5334;DHT22;2689;50.954;7.116;2022-08-30T06:47:26;20.20;93.40
5334;DHT22;2689;50.954;7.116;2022-08-30T06:49:54;20.40;93.50
5334;DHT22;2689;50.954;7.116;2022-08-30T06:52:22;20.60;93.00
5334;DHT22;2689;50.954;7.116;2022-08-30T06:54:49;20.90;92.20
5334;DHT22;2689;50.954;7.116;2022-08-30T06:57:16;21.20;91.70
5334;DHT22;2689;50.954;7.116;2022-08-30T06:59:43;21.40;90.70
5334;DHT22;2689;50.954;7.116;2022-08-30T07:02:10;21.50;89.00
5334;DHT22;2689;50.954;7.116;2022-08-30T07:04:36;21.60;89.00
5334;DHT22;2689;50.954;7.116;2022-08-30T07:07:04;21.70;86.30
5334;DHT22;2689;50.954;7.116;2022-08-30T07:09:32;21.70;86.00
5334;DHT22;2689;50.954;7.116;2022-08-30T07:12:01;21.80;85.40
5334;DHT22;2689;50.954;7.116;2022-08-30T07:14:28;21.90;85.90
5334;DHT22;2689;50.954;7.116;2022-08-30T07:16:55;22.00;85.50
5334;DHT22;2689;50.954;7.116;2022-08-30T07:19:21;22.20;84.60
5334;DHT22;2689;50.954;7.116;2022-08-30T07:21:48;22.30;84.00
5334;DHT22;2689;50.954;7.116;2022-08-30T07:24:15;22.50;82.10
5334;DHT22;2689;50.954;7.116;2022-08-30T07:26:45;22.80;80.80
5334;DHT22;2689;50.954;7.116;2022-08-30T07:29:14;23.00;79.20
5334;DHT22;2689;50.954;7.116;2022-08-30T07:31:41;23.30;77.50
5334;DHT22;2689;50.954;7.116;2022-08-30T07:34:08;23.50;76.10
5334;DHT22;2689;50.954;7.116;2022-08-30T07:36:37;23.90;76.30
5334;DHT22;2689;50.954;7.116;2022-08-30T07:39:05;24.50;74.20
5334;DHT22;2689;50.954;7.116;2022-08-30T07:41:34;25.00;71.70
5334;DHT22;2689;50.954;7.116;2022-08-30T07:44:04;25.60;69.20
5334;DHT22;2689;50.954;7.116;2022-08-30T07:46:31;25.90;67.10
5334;DHT22;2689;50.954;7.116;2022-08-30T07:48:59;26.40;67.20
5334;DHT22;2689;50.954;7.116;2022-08-30T07:51:27;26.90;63.20
5334;DHT22;2689;50.954;7.116;2022-08-30T07:53:55;26.90;61.60
5334;DHT22;2689;50.954;7.116;2022-08-30T07:56:22;27.30;60.80
5334;DHT22;2689;50.954;7.116;2022-08-30T07:58:50;27.20;59.20
5334;DHT22;2689;50.954;7.116;2022-08-30T08:01:20;27.40;58.40
5334;DHT22;2689;50.954;7.116;2022-08-30T08:03:48;28.00;57.80
5334;DHT22;2689;50.954;7.116;2022-08-30T08:06:17;28.80;55.80
5334;DHT22;2689;50.954;7.116;2022-08-30T08:08:44;29.70;53.60
5334;DHT22;2689;50.954;7.116;2022-08-30T08:11:14;30.10;52.60
5334;DHT22;2689;50.954;7.116;2022-08-30T08:13:41;30.70;50.40
5334;DHT22;2689;50.954;7.116;2022-08-30T08:16:09;31.00;48.80
5334;DHT22;2689;50.954;7.116;2022-08-30T08:18:37;31.20;48.80
5334;DHT22;2689;50.954;7.116;2022-08-30T08:21:04;31.60;47.00
5334;DHT22;2689;50.954;7.116;2022-08-30T08:23:31;31.60;45.40
5334;DHT22;2689;50.954;7.116;2022-08-30T08:25:58;31.40;45.80
5334;DHT22;2689;50.954;7.116;2022-08-30T08:28:25;31.40;46.80
5334;DHT22;2689;50.954;7.116;2022-08-30T08:30:52;31.60;45.40
5334;DHT22;2689;50.954;7.116;2022-08-30T08:33:18;31.70;45.50
5334;DHT22;2689;50.954;7.116;2022-08-30T08:35:46;31.90;44.90
5334;DHT22;2689;50.954;7.116;2022-08-30T08:38:14;32.70;44.60
5334;DHT22;2689;50.954;7.116;2022-08-30T08:40:46;33.60;42.10
5334;DHT22;2689;50.954;7.116;2022-08-30T08:43:18;34.40;40.40
5334;DHT22;2689;50.954;7.116;2022-08-30T08:45:53;35.30;38.80
5334;DHT22;2689;50.954;7.116;2022-08-30T08:48:31;35.30;38.00
5334;DHT22;2689;50.954;7.116;2022-08-30T08:51:00;34.30;38.10
5334;DHT22;2689;50.954;7.116;2022-08-30T08:53:49;33.20;39.90
5334;DHT22;2689;50.954;7.116;2022-08-30T08:56:18;32.80;41.20
5334;DHT22;2689;50.954;7.116;2022-08-30T08:58:48;33.20;40.40
5334;DHT22;2689;50.954;7.116;2022-08-30T09:01:19;34.10;39.10
5334;DHT22;2689;50.954;7.116;2022-08-30T09:03:46;35.20;37.80
5334;DHT22;2689;50.954;7.116;2022-08-30T09:06:36;36.00;35.60
5334;DHT22;2689;50.954;7.116;2022-08-30T09:09:04;36.80;34.70
5334;DHT22;2689;50.954;7.116;2022-08-30T09:11:36;37.30;34.30
5334;DHT22;2689;50.954;7.116;2022-08-30T09:14:05;37.60;31.80
5334;DHT22;2689;50.954;7.116;2022-08-30T09:16:57;38.40;31.40
5334;DHT22;2689;50.954;7.116;2022-08-30T09:19:37;39.00;30.10
5334;DHT22;2689;50.954;7.116;2022-08-30T09:22:13;39.00;30.00
5334;DHT22;2689;50.954;7.116;2022-08-30T09:24:42;39.20;30.10
5334;DHT22;2689;50.954;7.116;2022-08-30T09:27:24;39.50;28.80
5334;DHT22;2689;50.954;7.116;2022-08-30T09:29:55;39.80;28.00
5334;DHT22;2689;50.954;7.116;2022-08-30T09:32:28;40.20;27.40
5334;DHT22;2689;50.954;7.116;2022-08-30T09:34:55;40.50;27.00
5334;DHT22;2689;50.954;7.116;2022-08-30T09:37:31;40.80;27.20
5334;DHT22;2689;50.954;7.116;2022-08-30T09:39:59;41.40;25.90
5334;DHT22;2689;50.954;7.116;2022-08-30T09:42:28;41.40;24.60
5334;DHT22;2689;50.954;7.116;2022-08-30T09:44:56;41.50;25.40
5334;DHT22;2689;50.954;7.116;2022-08-30T09:47:37;41.30;23.50
5334;DHT22;2689;50.954;7.116;2022-08-30T09:50:06;41.50;23.10
5334;DHT22;2689;50.954;7.116;2022-08-30T09:53:07;41.20;23.40
5334;DHT22;2689;50.954;7.116;2022-08-30T09:55:50;40.80;23.10
5334;DHT22;2689;50.954;7.116;2022-08-30T09:58:31;40.70;23.40
5334;DHT22;2689;50.954;7.116;2022-08-30T10:01:07;41.20;24.30
5334;DHT22;2689;50.954;7.116;2022-08-30T10:03:39;41.20;23.10
5334;DHT22;2689;50.954;7.116;2022-08-30T10:06:17;40.60;23.60
5334;DHT22;2689;50.954;7.116;2022-08-30T10:08:57;40.30;23.90
5334;DHT22;2689;50.954;7.116;2022-08-30T10:11:32;39.40;24.70
5334;DHT22;2689;50.954;7.116;2022-08-30T10:14:23;38.00;26.00
5334;DHT22;2689;50.954;7.116;2022-08-30T10:16:57;37.10;27.20
5334;DHT22;2689;50.954;7.116;2022-08-30T10:19:35;35.70;27.80
5334;DHT22;2689;50.954;7.116;2022-08-30T10:22:08;34.80;28.80
5334;DHT22;2689;50.954;7.116;2022-08-30T10:24:42;34.00;30.80
5334;DHT22;2689;50.954;7.116;2022-08-30T10:27:13;33.40;30.80
5334;DHT22;2689;50.954;7.116;2022-08-30T10:29:45;32.90;32.30
5334;DHT22;2689;50.954;7.116;2022-08-30T10:32:18;32.90;33.00
5334;DHT22;2689;50.954;7.116;2022-08-30T10:34:50;33.70;31.60
5334;DHT22;2689;50.954;7.116;2022-08-30T10:37:23;34.10;30.10
5334;DHT22;2689;50.954;7.116;2022-08-30T10:39:54;33.80;31.10
5334;DHT22;2689;50.954;7.116;2022-08-30T10:42:52;33.80;31.30
5334;DHT22;2689;50.954;7.116;2022-08-30T10:45:20;34.10;31.00
5334;DHT22;2689;50.954;7.116;2022-08-30T10:47:53;34.40;30.30
5334;DHT22;2689;50.954;7.116;2022-08-30T10:50:24;34.90;29.80
5334;DHT22;2689;50.954;7.116;2022-08-30T10:52:57;35.10;29.90
5334;DHT22;2689;50.954;7.116;2022-08-30T10:55:30;35.00;29.10
5334;DHT22;2689;50.954;7.116;2022-08-30T10:57:59;35.50;30.10
5334;DHT22;2689;50.954;7.116;2022-08-30T11:00:28;36.10;29.20
5334;DHT22;2689;50.954;7.116;2022-08-30T11:03:27;36.70;28.40
5334;DHT22;2689;50.954;7.116;2022-08-30T11:06:15;37.80;27.70
5334;DHT22;2689;50.954;7.116;2022-08-30T11:09:11;38.50;26.60
5334;DHT22;2689;50.954;7.116;2022-08-30T11:11:57;38.00;26.40
5334;DHT22;2689;50.954;7.116;2022-08-30T11:14:27;37.20;27.00
5334;DHT22;2689;50.954;7.116;2022-08-30T11:16:58;36.30;27.80
5334;DHT22;2689;50.954;7.116;2022-08-30T11:19:27;36.00;28.50
5334;DHT22;2689;50.954;7.116;2022-08-30T11:22:10;35.90;28.30
5334;DHT22;2689;50.954;7.116;2022-08-30T11:25:00;35.20;28.60
5334;DHT22;2689;50.954;7.116;2022-08-30T11:27:49;34.30;29.70
5334;DHT22;2689;50.954;7.116;2022-08-30T11:30:50;33.10;31.00
5334;DHT22;2689;50.954;7.116;2022-08-30T11:33:30;32.40;32.40
5334;DHT22;2689;50.954;7.116;2022-08-30T11:35:57;31.80;33.80
5334;DHT22;2689;50.954;7.116;2022-08-30T11:38:58;31.40;34.90
5334;DHT22;2689;50.954;7.116;2022-08-30T11:41:31;31.30;35.20
5334;DHT22;2689;50.954;7.116;2022-08-30T11:44:26;31.70;34.90
5334;DHT22;2689;50.954;7.116;2022-08-30T11:46:55;32.90;34.20
5334;DHT22;2689;50.954;7.116;2022-08-30T11:49:42;34.30;32.60
5334;DHT22;2689;50.954;7.116;2022-08-30T11:52:39;36.10;29.80
5334;DHT22;2689;50.954;7.116;2022-08-30T11:55:32;37.40;27.80
5334;DHT22;2689;50.954;7.116;2022-08-30T11:58:13;37.90;26.60
5334;DHT22;2689;50.954;7.116;2022-08-30T12:00:45;38.80;26.40
5334;DHT22;2689;50.954;7.116;2022-08-30T12:03:28;38.90;25.80
5334;DHT22;2689;50.954;7.116;2022-08-30T12:05:58;38.60;26.00
5334;DHT22;2689;50.954;7.116;2022-08-30T12:08:46;37.90;26.20
5334;DHT22;2689;50.954;7.116;2022-08-30T12:14:49;37.70;27.00
5334;DHT22;2689;50.954;7.116;2022-08-30T12:17:27;38.60;26.60
5334;DHT22;2689;50.954;7.116;2022-08-30T12:20:19;38.80;26.10
5334;DHT22;2689;50.954;7.116;2022-08-30T12:22:48;39.00;26.00
5334;DHT22;2689;50.954;7.116;2022-08-30T12:25:19;39.20;26.10
5334;DHT22;2689;50.954;7.116;2022-08-30T12:27:47;39.80;26.60
5334;DHT22;2689;50.954;7.116;2022-08-30T12:30:14;40.20;25.10
5334;DHT22;2689;50.954;7.116;2022-08-30T12:32:50;40.00;24.60
5334;DHT22;2689;50.954;7.116;2022-08-30T12:35:20;38.90;25.30
5334;DHT22;2689;50.954;7.116;2022-08-30T12:37:57;37.80;26.90
5334;DHT22;2689;50.954;7.116;2022-08-30T12:40:24;37.30;27.30
5334;DHT22;2689;50.954;7.116;2022-08-30T12:42:54;36.40;28.20
5334;DHT22;2689;50.954;7.116;2022-08-30T12:45:24;35.50;29.30
5334;DHT22;2689;50.954;7.116;2022-08-30T12:47:57;34.80;29.80
5334;DHT22;2689;50.954;7.116;2022-08-30T12:50:27;34.10;30.50
5334;DHT22;2689;50.954;7.116;2022-08-30T12:52:57;33.20;31.80
5334;DHT22;2689;50.954;7.116;2022-08-30T12:55:26;33.30;32.80
5334;DHT22;2689;50.954;7.116;2022-08-30T12:57:57;34.10;32.80
5334;DHT22;2689;50.954;7.116;2022-08-30T13:00:26;35.40;30.20
5334;DHT22;2689;50.954;7.116;2022-08-30T13:02:58;35.90;29.00
5334;DHT22;2689;50.954;7.116;2022-08-30T13:05:44;36.20;29.00
5334;DHT22;2689;50.954;7.116;2022-08-30T13:08:20;36.90;27.90
5334;DHT22;2689;50.954;7.116;2022-08-30T13:10:52;37.40;28.10
5334;DHT22;2689;50.954;7.116;2022-08-30T13:13:36;37.60;27.30
5334;DHT22;2689;50.954;7.116;2022-08-30T13:16:24;38.00;27.00
5334;DHT22;2689;50.954;7.116;2022-08-30T13:18:55;38.40;27.30
5334;DHT22;2689;50.954;7.116;2022-08-30T13:21:48;38.80;26.80
5334;DHT22;2689;50.954;7.116;2022-08-30T13:24:15;39.00;26.70
5334;DHT22;2689;50.954;7.116;2022-08-30T13:26:42;38.40;26.60
5334;DHT22;2689;50.954;7.116;2022-08-30T13:29:15;38.20;27.50
5334;DHT22;2689;50.954;7.116;2022-08-30T13:31:43;38.80;27.10
5334;DHT22;2689;50.954;7.116;2022-08-30T13:34:11;39.20;26.60
5334;DHT22;2689;50.954;7.116;2022-08-30T13:36:42;39.80;26.70
5334;DHT22;2689;50.954;7.116;2022-08-30T13:39:11;40.50;25.80
5334;DHT22;2689;50.954;7.116;2022-08-30T13:41:37;40.60;25.40
5334;DHT22;2689;50.954;7.116;2022-08-30T13:44:04;40.60;26.30
5334;DHT22;2689;50.954;7.116;2022-08-30T13:46:31;40.60;26.10
5334;DHT22;2689;50.954;7.116;2022-08-30T13:49:02;40.40;26.80
5334;DHT22;2689;50.954;7.116;2022-08-30T13:51:30;40.80;26.50
5334;DHT22;2689;50.954;7.116;2022-08-30T13:53:57;41.10;25.70
5334;DHT22;2689;50.954;7.116;2022-08-30T13:56:25;41.50;26.30
5334;DHT22;2689;50.954;7.116;2022-08-30T13:58:56;41.90;26.00
5334;DHT22;2689;50.954;7.116;2022-08-30T14:01:22;42.10;26.10
5334;DHT22;2689;50.954;7.116;2022-08-30T14:03:49;42.00;26.20
5334;DHT22;2689;50.954;7.116;2022-08-30T14:06:16;41.10;26.30
5334;DHT22;2689;50.954;7.116;2022-08-30T14:08:44;40.50;26.60
5334;DHT22;2689;50.954;7.116;2022-08-30T14:11:12;38.70;26.90
5334;DHT22;2689;50.954;7.116;2022-08-30T14:13:41;37.00;28.70
5334;DHT22;2689;50.954;7.116;2022-08-30T14:16:08;36.10;29.70
5334;DHT22;2689;50.954;7.116;2022-08-30T14:18:35;36.80;31.00
5334;DHT22;2689;50.954;7.116;2022-08-30T14:21:02;36.10;30.40
5334;DHT22;2689;50.954;7.116;2022-08-30T14:23:28;35.90;30.30
5334;DHT22;2689;50.954;7.116;2022-08-30T14:25:58;35.60;30.50
5334;DHT22;2689;50.954;7.116;2022-08-30T14:28:26;35.30;30.70
5334;DHT22;2689;50.954;7.116;2022-08-30T14:30:54;34.60;31.30
5334;DHT22;2689;50.954;7.116;2022-08-30T14:33:21;33.30;33.80
5334;DHT22;2689;50.954;7.116;2022-08-30T14:35:48;33.40;34.00
5334;DHT22;2689;50.954;7.116;2022-08-30T14:38:15;33.60;34.40
5334;DHT22;2689;50.954;7.116;2022-08-30T14:40:42;33.70;34.00
5334;DHT22;2689;50.954;7.116;2022-08-30T14:43:10;33.70;33.90
5334;DHT22;2689;50.954;7.116;2022-08-30T14:45:37;33.40;34.30
5334;DHT22;2689;50.954;7.116;2022-08-30T14:48:04;33.10;35.10
5334;DHT22;2689;50.954;7.116;2022-08-30T14:50:33;32.80;35.30
5334;DHT22;2689;50.954;7.116;2022-08-30T14:53:00;32.80;36.00
5334;DHT22;2689;50.954;7.116;2022-08-30T14:55:27;32.60;36.00
5334;DHT22;2689;50.954;7.116;2022-08-30T14:57:56;32.20;36.60
5334;DHT22;2689;50.954;7.116;2022-08-30T15:00:25;32.00;36.90
5334;DHT22;2689;50.954;7.116;2022-08-30T15:02:51;31.80;37.40
5334;DHT22;2689;50.954;7.116;2022-08-30T15:05:18;31.70;37.90
5334;DHT22;2689;50.954;7.116;2022-08-30T15:07:49;31.40;38.00
5334;DHT22;2689;50.954;7.116;2022-08-30T15:10:17;31.10;38.60
5334;DHT22;2689;50.954;7.116;2022-08-30T15:12:45;31.00;39.40
5334;DHT22;2689;50.954;7.116;2022-08-30T15:15:14;30.90;39.20
5334;DHT22;2689;50.954;7.116;2022-08-30T15:17:42;30.80;39.40
5334;DHT22;2689;50.954;7.116;2022-08-30T15:20:09;30.90;39.00
5334;DHT22;2689;50.954;7.116;2022-08-30T15:22:36;30.80;38.90
5334;DHT22;2689;50.954;7.116;2022-08-30T15:25:04;30.80;39.20
5334;DHT22;2689;50.954;7.116;2022-08-30T15:27:31;30.60;39.50
5334;DHT22;2689;50.954;7.116;2022-08-30T15:29:58;30.70;39.60
5334;DHT22;2689;50.954;7.116;2022-08-30T15:32:25;30.60;39.70
5334;DHT22;2689;50.954;7.116;2022-08-30T15:34:53;30.50;40.80
5334;DHT22;2689;50.954;7.116;2022-08-30T15:37:20;30.50;40.70
5334;DHT22;2689;50.954;7.116;2022-08-30T15:39:47;30.50;40.80
5334;DHT22;2689;50.954;7.116;2022-08-30T15:42:15;30.50;40.70
5334;DHT22;2689;50.954;7.116;2022-08-30T15:44:43;30.40;41.30
5334;DHT22;2689;50.954;7.116;2022-08-30T15:47:10;30.30;41.70
5334;DHT22;2689;50.954;7.116;2022-08-30T15:49:37;30.30;42.10
5334;DHT22;2689;50.954;7.116;2022-08-30T15:52:05;30.30;42.30
5334;DHT22;2689;50.954;7.116;2022-08-30T15:54:32;30.30;41.90
5334;DHT22;2689;50.954;7.116;2022-08-30T15:56:58;30.30;42.20
5334;DHT22;2689;50.954;7.116;2022-08-30T15:59:25;30.10;42.20
5334;DHT22;2689;50.954;7.116;2022-08-30T16:01:52;29.90;42.50
5334;DHT22;2689;50.954;7.116;2022-08-30T16:04:19;29.80;43.20
5334;DHT22;2689;50.954;7.116;2022-08-30T16:06:47;29.60;43.50
5334;DHT22;2689;50.954;7.116;2022-08-30T16:09:15;29.40;43.50
5334;DHT22;2689;50.954;7.116;2022-08-30T16:11:42;29.30;44.30
5334;DHT22;2689;50.954;7.116;2022-08-30T16:14:08;29.20;44.20
5334;DHT22;2689;50.954;7.116;2022-08-30T16:16:35;28.90;44.80
5334;DHT22;2689;50.954;7.116;2022-08-30T16:19:03;28.80;45.10
5334;DHT22;2689;50.954;7.116;2022-08-30T16:21:31;28.70;45.60
5334;DHT22;2689;50.954;7.116;2022-08-30T16:24:02;28.60;45.70